• Join FlightAware (Why Join?)
  • Login
  • US Flag 
08:15PM EST


 

Airport Tracker/Info


-or-


 

Live Flight TrackerFlight Track Log ✈ MSR785 ✈ 09-Mar-2014 ✈ HECA / CAI - EDDF / FRA

Flight Track Log - Related Links

Times and Time Zones

All times are in EDT time to prevent confusion due to time zone crossing. See the MSR785 flight status page for this flight to view local times or setup timezone preferences in your user account.

Time Position Orientation Groundspeed Altitude Reporting Facility
EDT Latitude Longitude Course Direction KTS MPH feet Rate Location/Type
05:15AM 30.9320 30.7599 326° Northwest  Level Estimated
05:16AM 31.0330 30.6784 325° Northwest  Level Estimated
05:17AM 31.1340 30.5968 325° Northwest  Level Estimated
05:18AM 31.2349 30.5150 325° Northwest  Level Estimated
05:19AM 31.3358 30.4330 325° Northwest  Level Estimated
05:20AM 31.4366 30.3508 325° Northwest  Level Estimated
05:21AM 31.5374 30.2685 325° Northwest  Level Estimated
05:22AM 31.6381 30.1860 325° Northwest  Level Estimated
05:23AM 31.7388 30.1033 325° Northwest  Level Estimated
05:24AM 31.8394 30.0204 325° Northwest  Level Estimated
05:25AM 31.9399 29.9373 325° Northwest  Level Estimated
05:26AM 32.0405 29.8541 325° Northwest  Level Estimated
05:27AM 32.1409 29.7707 325° Northwest  Level Estimated
05:28AM 32.2413 29.6870 325° Northwest  Level Estimated
05:29AM 32.3416 29.6033 325° Northwest  Level Estimated
05:30AM 32.4419 29.5193 325° Northwest  Level Estimated
05:31AM 32.5421 29.4351 325° Northwest  Level Estimated
05:32AM 32.6423 29.3507 325° Northwest  Level Estimated
05:33AM 32.7424 29.2662 325° Northwest  Level Estimated
05:34AM 32.8425 29.1815 325° Northwest  Level Estimated
05:35AM 32.9425 29.0965 325° Northwest  Level Estimated
05:36AM 33.0424 29.0114 324° Northwest  Level Estimated
05:37AM 33.1423 28.9261 324° Northwest  Level Estimated
05:38AM 33.2421 28.8406 324° Northwest  Level Estimated
05:39AM 33.3419 28.7549 324° Northwest  Level Estimated
05:40AM 33.4416 28.6690 324° Northwest  Level Estimated
05:41AM 33.5413 28.5829 324° Northwest  Level Estimated
05:42AM 33.6409 28.4966 324° Northwest  Level Estimated
05:43AM 33.7404 28.4101 324° Northwest  Level Estimated
05:44AM 33.8398 28.3234 324° Northwest  Level Estimated
05:45AM 33.9393 28.2365 324° Northwest  Level Estimated
05:46AM 34.0386 28.1494 324° Northwest  Level Estimated
05:47AM 34.1379 28.0621 324° Northwest  Level Estimated
05:47AM 33.8626 28.2258 334° Northwest 480 552 40,000  Level FlightAware ADS-B
05:47AM 33.9397 28.1825 335° Northwest 482 555 40,000  Level FlightAware ADS-B
05:48AM 33.9991 28.1488 335° Northwest 482 555 40,000  Level FlightAware ADS-B
05:48AM 34.0206 28.1366 335° Northwest 483 556 40,000 -60 Level FlightAware ADS-B
05:51AM 34.2771 27.9109 324° Northwest  Level Estimated
05:52AM 34.3763 27.8231 324° Northwest  Level Estimated
05:53AM 34.4754 27.7352 324° Northwest  Level Estimated
05:54AM 34.5745 27.6471 324° Northwest  Level Estimated
05:55AM 34.6735 27.5587 324° Northwest  Level Estimated
05:56AM 34.7724 27.4701 324° Northwest  Level Estimated
05:57AM 34.8713 27.3813 324° Northwest  Level Estimated
05:58AM 34.9701 27.2924 324° Northwest  Level Estimated
05:59AM 35.0688 27.2031 324° Northwest  Level Estimated
06:00AM 35.1674 27.1137 323° Northwest  Level Estimated
06:01AM 35.2660 27.0241 323° Northwest  Level Estimated
06:02AM 35.3646 26.9342 323° Northwest  Level Estimated
06:03AM 35.4631 26.8441 323° Northwest  Level Estimated
06:04AM 35.5615 26.7538 323° Northwest  Level Estimated
06:05AM 35.6598 26.6633 323° Northwest  Level Estimated
06:06AM 35.7580 26.5725 323° Northwest  Level Estimated
06:07AM 35.8562 26.4816 323° Northwest  Level Estimated
06:08AM 35.9544 26.3904 323° Northwest  Level Estimated
06:09AM 36.0524 26.2990 323° Northwest  Level Estimated
06:10AM 36.1504 26.2073 323° Northwest  Level Estimated
06:11AM 36.2483 26.1154 323° Northwest  Level Estimated
06:12AM 36.3462 26.0233 323° Northwest  Level Estimated
06:13AM 36.4440 25.9310 323° Northwest  Level Estimated
06:14AM 36.5416 25.8384 323° Northwest  Level Estimated
06:15AM 36.6393 25.7456 323° Northwest  Level Estimated
06:16AM 36.7368 25.6525 323° Northwest  Level Estimated
06:17AM 36.8343 25.5592 323° Northwest  Level Estimated
06:18AM 36.9318 25.4657 323° Northwest  Level Estimated
06:19AM 37.0291 25.3720 322° Northwest  Level Estimated
06:20AM 37.1264 25.2780 322° Northwest  Level Estimated
06:21AM 37.2235 25.1837 322° Northwest  Level Estimated
06:22AM 37.3207 25.0892 322° Northwest  Level Estimated
06:23AM 37.4177 24.9945 322° Northwest  Level Estimated
06:24AM 37.5147 24.8995 322° Northwest  Level Estimated
06:25AM 37.6116 24.8043 322° Northwest  Level Estimated
06:26AM 37.7084 24.7088 322° Northwest  Level Estimated
06:27AM 37.8051 24.6131 322° Northwest  Level Estimated
06:28AM 37.9018 24.5171 322° Northwest  Level Estimated
06:29AM 37.9984 24.4209 322° Northwest  Level Estimated
06:30AM 38.0949 24.3244 322° Northwest  Level Estimated
06:31AM 38.1913 24.2277 322° Northwest  Level Estimated
06:32AM 38.2876 24.1307 322° Northwest  Level Estimated
06:33AM 38.3839 24.0334 322° Northwest  Level Estimated
06:34AM 38.4801 23.9359 322° Northwest  Level Estimated
06:35AM 38.5762 23.8382 322° Northwest  Level Estimated
06:36AM 38.6722 23.7401 321° Northwest  Level Estimated
06:37AM 38.7681 23.6418 321° Northwest  Level Estimated
06:38AM 38.8640 23.5433 321° Northwest  Level Estimated
06:39AM 38.9598 23.4445 321° Northwest  Level Estimated
06:40AM 39.0555 23.3454 321° Northwest  Level Estimated
06:41AM 39.1511 23.2460 321° Northwest  Level Estimated
06:42AM 39.2466 23.1464 321° Northwest  Level Estimated
06:43AM 39.3420 23.0465 321° Northwest  Level Estimated
06:44AM 39.4374 22.9463 321° Northwest  Level Estimated
06:45AM 39.5326 22.8459 321° Northwest  Level Estimated
06:46AM 39.6278 22.7451 321° Northwest  Level Estimated
06:47AM 39.7229 22.6441 321° Northwest  Level Estimated
06:48AM 39.8179 22.5429 321° Northwest  Level Estimated
06:49AM 39.9128 22.4413 321° Northwest  Level Estimated
06:50AM 40.0076 22.3395 321° Northwest  Level Estimated
06:51AM 40.1024 22.2373 321° Northwest  Level Estimated
06:52AM 40.1970 22.1349 320° Northwest  Level Estimated
06:53AM 40.2916 22.0322 320° Northwest  Level Estimated
06:54AM 40.3861 21.9292 320° Northwest  Level Estimated
06:55AM 40.4804 21.8260 320° Northwest  Level Estimated
06:56AM 40.5747 21.7224 320° Northwest  Level Estimated
06:57AM 40.6689 21.6185 320° Northwest  Level Estimated
06:58AM 40.7630 21.5144 320° Northwest  Level Estimated
06:59AM 40.8570 21.4100 320° Northwest  Level Estimated
07:00AM 40.9509 21.3052 320° Northwest  Level Estimated
07:01AM 41.0447 21.2002 320° Northwest  Level Estimated
07:02AM 41.1384 21.0948 320° Northwest  Level Estimated
07:03AM 41.2320 20.9892 320° Northwest  Level Estimated
07:04AM 41.3256 20.8832 320° Northwest  Level Estimated
07:05AM 41.4190 20.7770 320° Northwest  Level Estimated
07:06AM 41.5123 20.6705 319° Northwest  Level Estimated
07:07AM 41.6055 20.5636 319° Northwest  Level Estimated
07:08AM 41.6987 20.4564 319° Northwest  Level Estimated
07:09AM 41.7917 20.3489 319° Northwest  Level Estimated
07:10AM 41.8846 20.2411 319° Northwest  Level Estimated
07:11AM 41.9775 20.1330 319° Northwest  Level Estimated
07:12AM 42.0702 20.0246 319° Northwest  Level Estimated
07:13AM 42.1628 19.9159 319° Northwest  Level Estimated
07:14AM 42.2553 19.8068 319° Northwest  Level Estimated
07:15AM 42.3478 19.6974 319° Northwest  Level Estimated
07:16AM 42.4401 19.5877 319° Northwest  Level Estimated
07:17AM 42.5323 19.4777 319° Northwest  Level Estimated
07:18AM 42.6244 19.3674 319° Northwest  Level Estimated
07:19AM 42.7164 19.2567 319° Northwest  Level Estimated
07:20AM 42.8083 19.1457 318° Northwest  Level Estimated
07:21AM 42.9000 19.0343 318° Northwest  Level Estimated
07:22AM 42.9917 18.9227 318° Northwest  Level Estimated
07:23AM 43.0833 18.8107 318° Northwest  Level Estimated
07:24AM 43.1747 18.6983 318° Northwest  Level Estimated
07:25AM 43.2661 18.5857 318° Northwest  Level Estimated
07:26AM 43.3573 18.4727 318° Northwest  Level Estimated
07:27AM 43.4484 18.3593 318° Northwest  Level Estimated
07:28AM 43.5394 18.2456 318° Northwest  Level Estimated
07:29AM 43.6303 18.1316 318° Northwest  Level Estimated
07:30AM 43.7211 18.0172 318° Northwest  Level Estimated
07:31AM 43.8118 17.9025 318° Northwest  Level Estimated
07:32AM 43.9023 17.7874 318° Northwest  Level Estimated
07:33AM 43.9928 17.6720 317° Northwest  Level Estimated
07:34AM 44.0831 17.5562 317° Northwest  Level Estimated
07:35AM 44.1733 17.4401 317° Northwest  Level Estimated
07:36AM 44.2634 17.3236 317° Northwest  Level Estimated
07:37AM 44.3534 17.2067 317° Northwest  Level Estimated
07:38AM 44.4432 17.0895 317° Northwest  Level Estimated
07:39AM 44.5329 16.9720 317° Northwest  Level Estimated
07:40AM 44.6225 16.8540 317° Northwest  Level Estimated
07:41AM 44.7120 16.7357 317° Northwest  Level Estimated
07:42AM 44.8014 16.6171 317° Northwest  Level Estimated
07:43AM 44.8906 16.4980 317° Northwest  Level Estimated
07:44AM 44.9798 16.3786 317° Northwest  Level Estimated
07:45AM 45.0687 16.2589 316° Northwest  Level Estimated
07:46AM 45.1576 16.1387 316° Northwest  Level Estimated
07:47AM 45.2463 16.0182 316° Northwest  Level Estimated
07:48AM 45.3349 15.8973 316° Northwest  Level Estimated
07:49AM 45.4234 15.7760 316° Northwest  Level Estimated
07:50AM 45.5118 15.6544 316° Northwest  Level Estimated
07:51AM 45.6000 15.5324 316° Northwest  Level Estimated
07:52AM 45.6881 15.4100 316° Northwest  Level Estimated
07:52AM 47.1882 15.4326 325° Northwest 461 531 38,000  Level FlightAware ADS-B (EDDM / MUC)
07:53AM 47.2621 15.3562 325° Northwest 461 531 38,000  Level FlightAware ADS-B (EDDM / MUC)
07:54AM 47.3747 15.2393 325° Northwest 462 532 38,000  Level FlightAware ADS-B (EDDM / MUC)
07:54AM 47.4367 15.1747 325° Northwest 461 531 38,000  Level FlightAware ADS-B (EDDM / MUC)
07:55AM 47.5046 15.0907 312° West 474 545 38,000  Level FlightAware ADS-B (EDDM / MUC)
07:56AM 47.5583 14.9937 309° West 476 548 38,000  Level FlightAware ADS-B (EDDM / MUC)
07:56AM 47.5973 14.9223 309° West 477 549 38,000  Level FlightAware ADS-B (EDDM / MUC)
07:57AM 47.6473 14.8308 309° West 477 549 38,000  Level FlightAware ADS-B (EDDM / MUC)
07:57AM 47.7063 14.7221 309° West 476 548 38,000  Level FlightAware ADS-B (ETSE)
07:58AM 47.7579 14.6266 309° West 475 547 38,000  Level FlightAware ADS-B (EDDM / MUC)
07:58AM 47.7986 14.5512 309° West 476 548 38,000  Level FlightAware ADS-B (EDDM / MUC)
07:59AM 47.8436 14.4675 309° West 476 548 38,000  Level FlightAware ADS-B (EDDM / MUC)
08:00AM 47.8919 14.3774 309° West 477 549 38,000  Level FlightAware ADS-B (EDDM / MUC)
08:00AM 47.9506 14.2672 309° West 478 550 38,000  Level FlightAware ADS-B (EDDM / MUC)
08:01AM 48.0046 14.1658 308° West 479 551 38,000  Level FlightAware ADS-B (EDDM / MUC)
08:02AM 48.0559 14.0689 308° West 479 551 38,000  Level FlightAware ADS-B (EDDM / MUC)
08:02AM 48.1105 13.9650 308° West 478 550 38,000  Level FlightAware ADS-B (ETSE)
08:03AM 48.1509 13.8883 308° West 477 549 38,000  Level FlightAware ADS-B (EDDM / MUC)
08:04AM 48.2183 13.7591 308° West 476 548 38,000  Level FlightAware ADS-B (EDDM / MUC)
08:04AM 48.2655 13.6684 308° West 474 545 38,000  Level FlightAware ADS-B (EDDM / MUC)
08:05AM 48.3035 13.5951 308° West 474 545 38,000  Level FlightAware ADS-B (EDDM / MUC)
08:05AM 48.3579 13.4902 308° West 473 544 38,000  Level FlightAware ADS-B (EDDM / MUC)
08:06AM 48.3881 13.4313 307° West 473 544 38,000  Level FlightAware ADS-B (ETSE)
08:07AM 48.4458 13.2910 296° West 479 551 38,000  Level FlightAware ADS-B (EDDM / MUC)
08:07AM 48.4778 13.1805 292° West 480 552 38,000  Level FlightAware ADS-B (EDDM / MUC)
08:08AM 48.5208 13.0173 292° West 479 551 38,000  Level FlightAware ADS-B (ETSE)
08:09AM 48.5496 12.9073 292° West 477 549 38,000  Level FlightAware ADS-B (EDDM / MUC)
08:09AM 48.5709 12.8253 291° West 477 549 38,000  Level FlightAware ADS-B (EDDM / MUC)
08:10AM 48.5972 12.7217 289° West 478 550 38,000  Level FlightAware ADS-B (EDDM / MUC)
08:10AM 48.6154 12.6233 284° West 480 552 38,000  Level FlightAware ADS-B (EDDM / MUC)
08:11AM 48.6326 12.5225 284° West 480 552 38,000  Level FlightAware ADS-B (ETSE)
08:11AM 48.6518 12.4091 284° West 479 551 38,000  Level FlightAware ADS-B (EDDM / MUC)
08:12AM 48.6708 12.2960 284° West 480 552 38,000 -540 Level FlightAware ADS-B (EDDM / MUC)
08:13AM 48.6921 12.1680 284° West 482 555 37,300 -1,020 Descending FlightAware ADS-B (EDDM / MUC)
08:13AM 48.7123 12.0462 284° West 481 554 36,800 -1,200 Descending FlightAware ADS-B (EDDM / MUC)
08:14AM 48.7287 11.9462 284° West 483 556 36,100 -1,500 Descending FlightAware ADS-B (EDDM / MUC)
08:14AM 48.7500 11.8158 284° West 485 558 35,100 -1,500 Descending FlightAware ADS-B (EDDM / MUC)
08:15AM 48.7676 11.7066 284° West 479 551 34,300 -1,440 Descending FlightAware ADS-B (EDDM / MUC)
08:15AM 48.7856 11.5945 284° West 467 537 33,400 -1,440 Descending FlightAware ADS-B (EDDM / MUC)
08:16AM 48.7996 11.5218 294° West 461 531 32,900 -1,560 Descending FlightAware ADS-B (EDDM / MUC)
08:16AM 48.8339 11.4369 306° West 449 517 32,100 -780 Descending FlightAware ADS-B (EDDM / MUC)
08:17AM 48.8806 11.3397 306° West 449 517 32,000 -120 Descending FlightAware ADS-B (EDDM / MUC)
08:17AM 48.8980 11.3035 307° West 465 535 32,000 -180 Level FlightAware ADS-B (ETSE)
08:18AM 48.9427 11.2139 306° West 462 532 31,900 -1,080 Descending FlightAware ADS-B (EDDM / MUC)
08:18AM 48.9427 11.2139 308° West 482 555 30,700 -1,860 Descending FlightAware ADS-B (EDDM / MUC)
08:19AM 49.0538 10.9964 308° West 479 551 29,400 -1,920 Descending FlightAware ADS-B (EDDM / MUC)
08:20AM 49.1074 10.8902 308° West 479 551 28,100 -1,920 Descending FlightAware ADS-B (EDDM / MUC)
08:20AM 49.1444 10.8167 308° West 470 541 27,200 -1,980 Descending FlightAware ADS-B (EDDM / MUC)
08:21AM 49.2036 10.6984 307° West 454 522 25,700 -2,520 Descending FlightAware ADS-B (EDDM / MUC)
08:21AM 49.2661 10.5733 307° West 445 512 24,100 -1,680 Descending FlightAware ADS-B (ETSI / IGS)
08:22AM 49.2796 10.5463 307° West 441 507 24,000 -120 Descending FlightAware ADS-B (EDDM / MUC)
08:23AM 49.3154 10.4743 307° West 443 510 24,000 -120 Level FlightAware ADS-B (EDDM / MUC)
08:23AM 49.3623 10.3795 307° West 435 501 23,900 -600 Descending FlightAware ADS-B (EDDM / MUC)
08:24AM 49.3986 10.3061 307° West 399 459 22,900 -1,020 Descending FlightAware ADS-B (EDDM / MUC)
08:25AM 49.5038 10.0919 307° West 389 448 22,000 -1,200 Descending FlightAware ADS-B (EDDM / MUC)
08:26AM 49.5709 9.9544 307° West 387 445 20,900 -1,500 Descending FlightAware ADS-B (EDDM / MUC)
08:27AM 49.5814 9.9327 307° West 384 442 19,900 -1,620 Descending FlightAware ADS-B (EDDM / MUC)
08:27AM 49.5814 9.9327 307° West 379 436 19,000 -1,620 Descending FlightAware ADS-B (EDDM / MUC)
08:29AM 49.7187 9.6491 307° West 367 422 17,100 -1,680 Descending FlightAware ADS-B (EDDM / MUC)
08:31AM 49.8139 9.3123 294° West  Level Estimated
08:32AM 49.8628 9.1376 294° West  Level Estimated
08:33AM 49.9114 8.9626 293° West  Level Estimated
08:34AM 49.9598 8.7872 293° West  Level Estimated
08:35AM 50.0078 8.6114 293° West  Level Estimated
08:36AM 50.0264 8.5431 293° West  Level Estimated
08:37AM 50.0264 8.5431 North  Level Estimated
08:38AM 50.0264 8.5431 North  Level Estimated
08:39AM 50.0264 8.5431 North  Level Estimated
08:40AM 50.0264 8.5431 North  Level Estimated
08:41AM 50.0264 8.5431 North  Level Estimated
08:42AM 50.0264 8.5431 North  Level Estimated
08:43AM 50.0264 8.5431 North  Level Estimated
08:44AM 50.0264 8.5431 North  Level Estimated
08:45AM 50.0264 8.5431 North  Level Estimated
08:46AM 50.0264 8.5431 North  Level Estimated
08:47AM 50.0264 8.5431 North  Level Estimated
08:48AM 50.0264 8.5431 North  Level Estimated
08:49AM 50.0264 8.5431 North  Level Estimated
08:50AM 50.0264 8.5431 North  Level Estimated
08:51AM 50.0264 8.5431 North  Level Estimated
08:52AM 50.0264 8.5431 North  Level Estimated
08:53AM 50.0264 8.5431 North  Level Estimated
08:54AM 50.0264 8.5431 North  Level Estimated
08:55AM 50.0264 8.5431 North  Level Estimated
08:56AM 50.0264 8.5431 North  Level Estimated
08:57AM 50.0264 8.5431 North  Level Estimated